Time;durP1;ratioP1;P1;durP2;ratioP2;P2;SDS_P1;SDS_P2;PMS_P1;PMS_P2;Temp;Humidity;BMP_temperature;BMP_pressure;BME280_temperature;BME280_humidity;BME280_pressure;Samples;Min_cycle;Max_cycle;Signal;HPM_P1;HPM_P2
2023/10/28 00:00:44;;;;;;;0.30;0.20;;;;;;;13.59;100.00;98428.44;5025911;28;20858;-52
2023/10/28 00:03:11;;;;;;;0.30;0.20;;;;;;;13.59;100.00;98425.78;5023199;28;20485;-51
2023/10/28 00:05:37;;;;;;;0.30;0.20;;;;;;;13.62;100.00;98425.53;5018665;28;20453;-52
2023/10/28 00:08:04;;;;;;;0.30;0.20;;;;;;;13.60;100.00;98431.97;5029931;28;20488;-52
2023/10/28 00:10:32;;;;;;;0.30;0.20;;;;;;;13.54;100.00;98417.22;5018957;28;20907;-51
2023/10/28 00:12:59;;;;;;;0.30;0.20;;;;;;;13.56;100.00;98419.78;5020933;28;20857;-52
2023/10/28 00:15:26;;;;;;;0.30;0.20;;;;;;;13.50;100.00;98415.72;5007483;28;20485;-52
2023/10/28 00:17:53;;;;;;;0.30;0.20;;;;;;;13.55;100.00;98418.06;5016141;28;20427;-52
2023/10/28 00:20:21;;;;;;;0.30;0.20;;;;;;;13.45;100.00;98417.03;5018654;28;20427;-52
2023/10/28 00:22:49;;;;;;;0.30;0.20;;;;;;;13.51;100.00;98421.91;5014455;28;20566;-52
2023/10/28 00:25:16;;;;;;;0.30;0.20;;;;;;;13.46;100.00;98422.25;5025548;28;20518;-52
2023/10/28 00:27:43;;;;;;;0.30;0.20;;;;;;;13.49;100.00;98421.19;5024970;28;20505;-52
2023/10/28 00:30:11;;;;;;;0.30;0.20;;;;;;;13.44;100.00;98420.66;5018824;28;20458;-51
2023/10/28 00:32:37;;;;;;;0.30;0.20;;;;;;;13.52;99.55;98424.47;5018821;28;20566;-51
2023/10/28 00:35:07;;;;;;;0.30;0.20;;;;;;;13.40;100.00;98425.34;5005666;28;20426;-51
2023/10/28 00:37:34;;;;;;;0.30;0.20;;;;;;;13.37;100.00;98430.03;5009859;28;20416;-52
2023/10/28 00:40:05;;;;;;;0.30;0.20;;;;;;;13.33;100.00;98429.41;5019673;28;20914;-52
2023/10/28 00:42:35;;;;;;;0.30;0.20;;;;;;;13.40;100.00;98432.50;5018718;28;20556;-52
2023/10/28 00:45:09;;;;;;;0.30;0.20;;;;;;;13.50;99.90;98438.91;5023859;28;20558;-51
2023/10/28 00:47:38;;;;;;;0.30;0.20;;;;;;;13.43;100.00;98437.59;5025026;28;20562;-52
2023/10/28 00:50:12;;;;;;;0.30;0.20;;;;;;;13.35;100.00;98443.50;5022359;28;20432;-51
2023/10/28 00:52:42;;;;;;;0.30;0.20;;;;;;;13.41;100.00;98442.22;5027041;28;20495;-52
2023/10/28 00:55:10;;;;;;;0.30;0.20;;;;;;;13.41;100.00;98442.22;5024024;28;20422;-51
2023/10/28 00:57:41;;;;;;;0.30;0.20;;;;;;;13.43;100.00;98446.50;5018572;28;20509;-51
2023/10/28 01:00:10;;;;;;;0.30;0.20;;;;;;;13.50;100.00;98444.25;5019174;28;20846;-52
2023/10/28 01:02:39;;;;;;;0.30;0.20;;;;;;;13.38;100.00;98445.94;5024913;28;20990;-51
2023/10/28 01:05:11;;;;;;;0.30;0.20;;;;;;;13.33;100.00;98440.94;5025255;28;20434;-51
2023/10/28 01:07:41;;;;;;;0.30;0.20;;;;;;;13.52;100.00;98444.97;5010350;28;20567;-52
2023/10/28 01:10:09;;;;;;;0.30;0.20;;;;;;;13.46;100.00;98450.75;5026698;28;20816;-52
2023/10/28 01:12:37;;;;;;;0.30;0.20;;;;;;;13.50;100.00;98446.91;5024020;28;20972;-51
2023/10/28 01:15:05;;;;;;;0.30;0.20;;;;;;;13.57;99.85;98453.53;5019574;28;20423;-52
2023/10/28 01:17:32;;;;;;;0.30;0.20;;;;;;;13.45;100.00;98446.38;5024512;28;20448;-52
2023/10/28 01:19:58;;;;;;;0.30;0.20;;;;;;;13.34;100.00;98449.81;5021495;28;21058;-52
2023/10/28 01:22:26;;;;;;;0.30;0.20;;;;;;;13.25;99.86;98442.41;5020099;28;20994;-51
2023/10/28 01:24:52;;;;;;;0.30;0.20;;;;;;;13.22;99.40;98448.81;5028377;28;20447;-51
2023/10/28 01:27:19;;;;;;;0.30;0.20;;;;;;;13.16;98.49;98449.22;5024563;28;20974;-51
2023/10/28 01:29:46;;;;;;;0.30;0.20;;;;;;;13.17;97.94;98452.75;5021547;28;20538;-51
2023/10/28 01:32:14;;;;;;;0.30;0.20;;;;;;;13.16;97.84;98451.91;5007565;28;20451;-51
2023/10/28 01:34:52;;;;;;;0.30;0.20;;;;;;;13.13;97.41;98452.09;5028191;28;20868;-51
2023/10/28 01:37:21;;;;;;;0.30;0.20;;;;;;;13.02;97.35;98454.66;5019727;28;20791;-51
2023/10/28 01:39:51;;;;;;;0.30;0.20;;;;;;;13.04;97.29;98456.25;5028426;28;20449;-51
2023/10/28 01:42:20;;;;;;;0.30;0.20;;;;;;;13.03;96.99;98459.03;5027437;28;20441;-52
2023/10/28 01:44:48;;;;;;;0.30;0.20;;;;;;;12.97;96.78;98449.63;5021216;28;20426;-51
2023/10/28 01:47:15;;;;;;;0.30;0.20;;;;;;;13.05;96.51;98465.13;5021436;28;20965;-52
2023/10/28 01:49:42;;;;;;;0.30;0.20;;;;;;;12.90;96.83;98468.81;5010343;28;21014;-51
2023/10/28 01:52:10;;;;;;;0.30;0.20;;;;;;;12.84;97.73;98482.53;5014704;28;20454;-50
2023/10/28 01:54:37;;;;;;;0.30;0.20;;;;;;;12.64;96.90;98463.41;5027543;28;20431;-52
2023/10/28 01:57:06;;;;;;;0.30;0.20;;;;;;;12.93;96.61;98481.94;5027683;28;20444;-51
2023/10/28 01:59:41;;;;;;;0.30;0.20;;;;;;;12.81;96.12;98485.44;5022499;28;20498;-51
2023/10/28 02:02:07;;;;;;;0.30;0.20;;;;;;;12.85;95.39;98489.59;5020527;28;20832;-51
2023/10/28 02:04:35;;;;;;;0.30;0.20;;;;;;;12.85;95.66;98487.78;5025340;28;20808;-51
2023/10/28 02:07:01;;;;;;;0.30;0.20;;;;;;;12.97;96.10;98492.28;5027997;28;20473;-52
2023/10/28 02:09:28;;;;;;;0.30;0.20;;;;;;;13.07;95.27;98489.00;5025112;28;20459;-51
2023/10/28 02:11:55;;;;;;;0.30;0.20;;;;;;;12.88;95.54;98487.56;5027274;28;20811;-52
2023/10/28 02:14:24;;;;;;;0.30;0.20;;;;;;;13.03;95.45;98491.03;5018058;28;20463;-51
2023/10/28 02:16:51;;;;;;;0.30;0.20;;;;;;;12.95;96.00;98499.53;5001678;28;20532;-51
2023/10/28 02:19:20;;;;;;;0.30;0.20;;;;;;;12.78;95.77;98490.97;5024333;28;20434;-52
2023/10/28 02:21:48;;;;;;;0.30;0.20;;;;;;;12.74;95.87;98493.81;5021252;28;20484;-52
2023/10/28 02:24:21;;;;;;;0.30;0.20;;;;;;;12.68;95.48;98493.38;5025695;28;20798;-52
2023/10/28 02:26:48;;;;;;;0.30;0.20;;;;;;;12.70;95.15;98502.97;5015553;28;20540;-51
2023/10/28 02:29:14;;;;;;;0.30;0.20;;;;;;;12.85;95.34;98509.09;5025484;28;20940;-51
2023/10/28 02:31:41;;;;;;;0.30;0.20;;;;;;;12.79;94.56;98501.53;5020133;28;20843;-51
2023/10/28 02:34:07;;;;;;;0.30;0.20;;;;;;;12.82;93.86;98505.78;5022405;28;20455;-52
2023/10/28 02:36:34;;;;;;;0.30;0.20;;;;;;;12.83;94.29;98510.16;5026477;28;20480;-51
2023/10/28 02:39:00;;;;;;;0.30;0.20;;;;;;;12.74;94.60;98506.28;5005891;28;20465;-51
2023/10/28 02:41:27;;;;;;;0.30;0.20;;;;;;;12.66;93.53;98517.47;5027122;28;20472;-51
2023/10/28 02:43:54;;;;;;;0.30;0.20;;;;;;;12.61;94.21;98521.38;5025606;28;20487;-51
2023/10/28 02:46:21;;;;;;;0.30;0.20;;;;;;;12.55;93.84;98522.66;5020352;28;20428;-51
2023/10/28 02:48:48;;;;;;;0.30;0.20;;;;;;;12.69;93.47;98527.94;5021501;28;20554;-52
2023/10/28 02:51:14;;;;;;;0.30;0.20;;;;;;;12.72;93.28;98535.72;5031835;28;20477;-51
2023/10/28 02:53:41;;;;;;;0.30;0.20;;;;;;;12.71;94.14;98534.00;5021375;28;21063;-52
2023/10/28 02:56:08;;;;;;;0.30;0.20;;;;;;;12.71;93.91;98539.34;5026577;28;20448;-52
2023/10/28 02:58:35;;;;;;;0.30;0.20;;;;;;;12.67;94.74;98534.31;5025927;28;20448;-52
2023/10/28 03:01:12;;;;;;;0.30;0.20;;;;;;;12.72;94.99;98533.06;5026773;28;20999;-51
2023/10/28 03:03:41;;;;;;;0.30;0.20;;;;;;;12.94;94.82;98540.50;5026899;28;20423;-52
2023/10/28 03:06:08;;;;;;;0.30;0.20;;;;;;;12.79;95.29;98538.00;5021546;28;20934;-52
2023/10/28 03:08:35;;;;;;;0.30;0.20;;;;;;;12.90;95.05;98532.81;5028997;28;20479;-52
2023/10/28 03:11:01;;;;;;;0.30;0.20;;;;;;;12.86;95.82;98531.28;5021362;28;20478;-51
2023/10/28 03:13:28;;;;;;;0.30;0.20;;;;;;;12.87;95.36;98530.34;5019978;28;20423;-51
2023/10/28 03:15:56;;;;;;;0.30;0.20;;;;;;;12.82;95.30;98543.97;5002394;28;20438;-52
2023/10/28 03:18:23;;;;;;;0.30;0.20;;;;;;;12.83;96.04;98539.50;5022509;28;20443;-51
2023/10/28 03:20:49;;;;;;;0.30;0.20;;;;;;;12.90;96.13;98533.69;5019746;28;20454;-52
2023/10/28 03:23:16;;;;;;;0.30;0.20;;;;;;;12.89;95.65;98547.13;5016669;28;20451;-52
2023/10/28 03:25:43;;;;;;;0.30;0.20;;;;;;;12.86;96.06;98531.28;5023057;28;20423;-52
2023/10/28 03:28:09;;;;;;;0.30;0.20;;;;;;;12.87;97.44;98531.19;5026248;28;20899;-52
2023/10/28 03:30:36;;;;;;;0.30;0.20;;;;;;;12.67;99.21;98543.19;5022827;28;20454;-52
2023/10/28 03:33:02;;;;;;;0.30;0.20;;;;;;;12.76;99.39;98536.41;5018669;28;20533;-51
2023/10/28 03:35:29;;;;;;;0.30;0.20;;;;;;;12.72;99.40;98535.72;5023082;28;20932;-51
2023/10/28 03:37:56;;;;;;;0.30;0.20;;;;;;;12.71;99.39;98534.00;5020492;28;20513;-51
2023/10/28 03:40:23;;;;;;;0.30;0.20;;;;;;;12.67;99.28;98540.50;5022576;28;20437;-51
2023/10/28 03:42:49;;;;;;;0.30;0.20;;;;;;;12.63;99.65;98544.34;5025981;28;20447;-51
2023/10/28 03:45:16;;;;;;;0.30;0.20;;;;;;;12.62;99.44;98537.31;5023164;28;20454;-51
2023/10/28 03:47:43;;;;;;;0.30;0.20;;;;;;;12.45;99.89;98537.50;5019187;28;20492;-52
2023/10/28 03:50:10;;;;;;;0.30;0.20;;;;;;;12.40;100.00;98543.16;5022036;28;20430;-52
2023/10/28 03:52:36;;;;;;;0.30;0.20;;;;;;;12.35;100.00;98544.41;5016620;28;20490;-51
2023/10/28 03:55:03;;;;;;;0.30;0.20;;;;;;;12.37;100.00;98540.69;5004223;28;20488;-51
2023/10/28 03:57:29;;;;;;;0.30;0.20;;;;;;;12.42;100.00;98553.72;5008212;28;20444;-52
2023/10/28 03:59:58;;;;;;;0.30;0.20;;;;;;;12.44;100.00;98547.31;5023490;28;20546;-51
2023/10/28 04:02:25;;;;;;;0.30;0.20;;;;;;;12.42;100.00;98548.38;5014915;28;20519;-48
2023/10/28 04:04:52;;;;;;;0.30;0.20;;;;;;;12.48;100.00;98541.81;5023659;28;20506;-49
2023/10/28 04:07:19;;;;;;;0.30;0.20;;;;;;;12.53;100.00;98537.03;5011896;28;20826;-49
2023/10/28 04:09:45;;;;;;;0.30;0.20;;;;;;;12.61;100.00;98548.03;5012763;28;20437;-48
2023/10/28 04:12:12;;;;;;;0.30;0.20;;;;;;;12.62;100.00;98544.44;5025769;28;20444;-48
2023/10/28 04:14:39;;;;;;;0.30;0.20;;;;;;;12.59;100.00;98540.13;5015207;28;21012;-49
2023/10/28 04:17:05;;;;;;;0.30;0.20;;;;;;;12.61;100.00;98546.25;5014342;28;20950;-48
2023/10/28 04:19:32;;;;;;;0.30;0.20;;;;;;;12.67;100.00;98550.31;5010017;28;20423;-49
2023/10/28 04:21:58;;;;;;;0.30;0.20;;;;;;;12.67;99.98;98550.31;5017655;28;20465;-48
2023/10/28 04:24:25;;;;;;;0.30;0.20;;;;;;;12.65;100.00;98549.56;5009108;28;20424;-49
2023/10/28 04:26:52;;;;;;;0.30;0.20;;;;;;;12.68;100.00;98549.38;5025658;28;20425;-48
2023/10/28 04:29:19;;;;;;;0.30;0.20;;;;;;;12.70;99.69;98536.78;5024769;28;20521;-49
2023/10/28 04:31:46;;;;;;;0.30;0.20;;;;;;;12.62;100.00;98534.63;5012529;28;20479;-48
2023/10/28 04:34:12;;;;;;;0.30;0.20;;;;;;;12.52;100.00;98538.84;5012355;28;20453;-49
2023/10/28 04:36:39;;;;;;;0.30;0.20;;;;;;;12.56;100.00;98535.00;5010792;28;20522;-49
2023/10/28 04:39:05;;;;;;;0.40;0.40;;;;;;;12.67;100.00;98537.84;5019053;28;20450;-49
2023/10/28 04:41:32;;;;;;;0.30;0.20;;;;;;;12.62;100.00;98531.97;4999354;28;20871;-49
2023/10/28 04:44:01;;;;;;;0.30;0.20;;;;;;;12.68;100.00;98531.56;5025326;28;20479;-49
2023/10/28 04:46:29;;;;;;;0.30;0.20;;;;;;;12.69;100.00;98530.59;5016208;28;20502;-48
2023/10/28 04:48:56;;;;;;;0.30;0.20;;;;;;;12.71;100.00;98536.69;5011668;28;20492;-49
2023/10/28 04:51:24;;;;;;;0.30;0.20;;;;;;;12.80;100.00;98534.38;5034733;28;20502;-49
2023/10/28 04:53:51;;;;;;;0.30;0.20;;;;;;;12.78;100.00;98541.63;5034454;28;20513;-48
2023/10/28 04:56:18;;;;;;;0.30;0.20;;;;;;;12.84;100.00;98531.41;5023885;28;20899;-49
2023/10/28 04:58:45;;;;;;;0.30;0.20;;;;;;;12.96;100.00;98529.72;5020587;28;20423;-48
2023/10/28 05:01:11;;;;;;;0.30;0.20;;;;;;;13.04;99.58;98538.09;5023909;28;20483;-48
2023/10/28 05:03:38;;;;;;;0.30;0.20;;;;;;;13.04;100.00;98532.75;5009148;28;20496;-49
2023/10/28 05:06:05;;;;;;;0.30;0.20;;;;;;;13.10;99.54;98532.34;5035683;28;20482;-49
2023/10/28 05:08:31;;;;;;;0.93;0.93;;;;;;;13.14;99.62;98531.16;5032004;28;20633;-49
2023/10/28 05:10:58;;;;;;;0.30;0.20;;;;;;;13.14;99.52;98536.50;5012825;28;20451;-48
2023/10/28 05:13:24;;;;;;;0.30;0.20;;;;;;;13.19;99.10;98537.09;5008729;28;20424;-48
2023/10/28 05:15:50;;;;;;;0.30;0.20;;;;;;;13.23;99.16;98530.59;5026568;28;20431;-49
2023/10/28 05:18:17;;;;;;;0.30;0.20;;;;;;;13.12;99.49;98526.88;5017164;28;20427;-48
2023/10/28 05:20:43;;;;;;;0.30;0.20;;;;;;;13.14;99.66;98524.97;5035291;28;20429;-49
2023/10/28 05:23:10;;;;;;;0.30;0.20;;;;;;;13.07;99.78;98519.22;5021709;28;21009;-48
2023/10/28 05:25:36;;;;;;;0.30;0.20;;;;;;;13.10;99.40;98529.66;5035486;28;20815;-48
2023/10/28 05:28:03;;;;;;;0.30;0.20;;;;;;;13.09;99.61;98527.97;5032613;28;20461;-49
2023/10/28 05:30:30;;;;;;;0.30;0.20;;;;;;;13.09;99.76;98527.09;5024143;28;20832;-49
2023/10/28 05:32:56;;;;;;;0.30;0.20;;;;;;;13.00;99.12;98529.41;5019252;28;20461;-48
2023/10/28 05:35:22;;;;;;;0.30;0.20;;;;;;;13.09;99.28;98527.97;5015491;28;20434;-49
2023/10/28 05:37:49;;;;;;;0.30;0.20;;;;;;;13.20;98.65;98529.94;5008918;28;20429;-49
2023/10/28 05:40:16;;;;;;;0.30;0.20;;;;;;;13.27;98.27;98534.75;5025885;28;20511;-48
2023/10/28 05:42:42;;;;;;;0.30;0.20;;;;;;;13.36;97.64;98525.28;5017269;28;20439;-48
2023/10/28 05:45:10;;;;;;;0.30;0.20;;;;;;;13.34;97.54;98535.19;5025532;28;20427;-49
2023/10/28 05:47:37;;;;;;;0.30;0.20;;;;;;;13.27;97.58;98531.22;5017376;28;20419;-48
2023/10/28 05:50:07;;;;;;;0.30;0.20;;;;;;;13.45;97.55;98537.13;5034554;28;20454;-49
2023/10/28 05:52:34;;;;;;;0.30;0.20;;;;;;;13.24;98.02;98529.63;5031087;28;20531;-49
2023/10/28 05:55:02;;;;;;;0.30;0.20;;;;;;;13.32;97.94;98543.31;5024814;28;20422;-50
2023/10/28 05:57:29;;;;;;;0.30;0.20;;;;;;;13.27;97.61;98539.22;5021056;28;20877;-50
2023/10/28 05:59:55;;;;;;;0.30;0.20;;;;;;;13.44;97.37;98544.28;5023545;28;20426;-49
2023/10/28 06:02:24;;;;;;;0.30;0.20;;;;;;;13.29;98.23;98537.31;5027418;28;20986;-50
2023/10/28 06:04:52;;;;;;;0.30;0.20;;;;;;;13.36;97.83;98551.09;5025869;28;20497;-50
2023/10/28 06:07:18;;;;;;;0.30;0.20;;;;;;;13.31;97.73;98554.94;5013975;28;20482;-49
2023/10/28 06:09:47;;;;;;;0.30;0.20;;;;;;;13.22;98.20;98560.88;5014487;28;20471;-49
2023/10/28 06:12:14;;;;;;;0.30;0.20;;;;;;;13.21;98.79;98564.53;5027499;28;20443;-49
2023/10/28 06:14:42;;;;;;;0.30;0.20;;;;;;;13.21;98.23;98566.34;5026014;28;20458;-49
2023/10/28 06:17:09;;;;;;;0.30;0.20;;;;;;;13.19;98.88;98561.09;5002062;28;20517;-49
2023/10/28 06:19:35;;;;;;;0.30;0.20;;;;;;;13.23;98.36;98575.94;5005962;28;20432;-49
2023/10/28 06:22:02;;;;;;;0.30;0.20;;;;;;;13.22;98.56;98571.56;5021556;28;20469;-49
2023/10/28 06:24:28;;;;;;;0.30;0.20;;;;;;;13.28;98.11;98571.13;5014263;28;20448;-49
2023/10/28 06:26:57;;;;;;;0.30;0.20;;;;;;;13.25;97.84;98567.84;5027112;28;20521;-49
2023/10/28 06:29:23;;;;;;;0.30;0.20;;;;;;;13.30;97.78;98576.41;5027123;28;20487;-49
2023/10/28 06:31:50;;;;;;;0.30;0.20;;;;;;;13.40;97.86;98573.94;5020891;28;20474;-50
2023/10/28 06:34:17;;;;;;;0.30;0.20;;;;;;;13.40;97.04;98576.63;5020164;28;20990;-50
2023/10/28 06:36:43;;;;;;;0.30;0.20;;;;;;;13.55;96.85;98583.56;5024479;28;20522;-49
2023/10/28 06:39:10;;;;;;;0.30;0.20;;;;;;;13.46;96.88;98585.06;5008414;28;20455;-49
2023/10/28 06:41:36;;;;;;;0.30;0.20;;;;;;;13.67;96.29;98581.88;5026039;28;20435;-50
2023/10/28 06:44:05;;;;;;;0.30;0.20;;;;;;;13.37;97.14;98585.69;5026909;28;20456;-49
2023/10/28 06:46:32;;;;;;;0.30;0.20;;;;;;;13.36;97.16;98583.97;5021704;28;20451;-49
2023/10/28 06:48:59;;;;;;;0.30;0.20;;;;;;;13.32;97.65;98590.50;5020000;28;20467;-49
2023/10/28 06:51:26;;;;;;;0.30;0.20;;;;;;;13.42;96.69;98596.03;5032701;28;20846;-49
2023/10/28 06:53:52;;;;;;;0.30;0.20;;;;;;;13.54;96.45;98601.41;5019987;28;20864;-50
2023/10/28 06:56:19;;;;;;;0.30;0.20;;;;;;;13.57;96.52;98605.72;5024724;28;20462;-50
2023/10/28 06:58:45;;;;;;;0.30;0.20;;;;;;;13.54;95.91;98600.56;5024872;28;20422;-49
2023/10/28 07:01:12;;;;;;;0.30;0.20;;;;;;;13.38;96.86;98605.22;5002004;28;20872;-48
2023/10/28 07:03:40;;;;;;;0.30;0.20;;;;;;;13.50;96.40;98607.06;5015744;28;20539;-49
2023/10/28 07:06:14;;;;;;;0.30;0.20;;;;;;;13.58;96.84;98615.44;5024135;28;20526;-49
2023/10/28 07:08:42;;;;;;;0.30;0.20;;;;;;;13.58;96.79;98618.97;5014441;28;20966;-49
2023/10/28 07:11:11;;;;;;;0.30;0.20;;;;;;;13.74;96.07;98613.41;5022851;28;20447;-48
2023/10/28 07:13:38;;;;;;;0.30;0.20;;;;;;;13.53;95.64;98615.72;5026398;28;20459;-48
2023/10/28 07:16:05;;;;;;;0.30;0.20;;;;;;;13.69;95.70;98609.34;5003572;28;20482;-49
2023/10/28 07:18:32;;;;;;;0.30;0.20;;;;;;;13.78;95.24;98622.06;5010396;28;20428;-48
2023/10/28 07:21:00;;;;;;;0.30;0.20;;;;;;;13.76;95.51;98627.53;5016590;28;20450;-48
2023/10/28 07:23:27;;;;;;;0.30;0.20;;;;;;;13.78;95.05;98633.59;5002479;28;20530;-48
2023/10/28 07:25:54;;;;;;;0.30;0.20;;;;;;;13.76;94.57;98638.19;5023643;28;20501;-48
2023/10/28 07:28:21;;;;;;;0.30;0.20;;;;;;;13.68;94.86;98637.00;5019150;28;20432;-48
2023/10/28 07:30:48;;;;;;;0.30;0.20;;;;;;;13.85;95.29;98636.72;5021636;28;20442;-49
2023/10/28 07:33:15;;;;;;;0.30;0.20;;;;;;;13.92;94.72;98638.84;5016937;28;20444;-49
2023/10/28 07:35:45;;;;;;;0.30;0.20;;;;;;;13.82;95.21;98637.75;5001944;28;20939;-48
2023/10/28 07:38:12;;;;;;;0.30;0.20;;;;;;;14.19;94.75;98641.44;5004900;28;20427;-48
2023/10/28 07:40:40;;;;;;;0.30;0.20;;;;;;;13.97;94.93;98641.19;5013286;28;20427;-49
2023/10/28 07:43:06;;;;;;;0.30;0.20;;;;;;;14.01;94.38;98639.19;5020663;28;20432;-49
2023/10/28 07:45:33;;;;;;;0.30;0.20;;;;;;;13.90;94.67;98646.13;5008536;28;20463;-49
2023/10/28 07:47:59;;;;;;;0.30;0.20;;;;;;;14.00;94.11;98649.03;5011939;28;20521;-48
2023/10/28 07:50:26;;;;;;;0.30;0.20;;;;;;;13.90;95.01;98655.94;5018201;28;20902;-48
2023/10/28 07:52:53;;;;;;;0.30;0.20;;;;;;;13.93;95.16;98651.25;5001905;28;20988;-49
2023/10/28 07:55:19;;;;;;;0.30;0.20;;;;;;;14.02;95.14;98662.28;5015384;28;20426;-49
2023/10/28 07:57:45;;;;;;;0.30;0.20;;;;;;;14.20;94.87;98661.84;5012478;28;20434;-49
2023/10/28 08:00:13;;;;;;;0.30;0.20;;;;;;;14.02;94.37;98659.59;5024854;28;20952;-49
2023/10/28 08:02:44;;;;;;;0.30;0.20;;;;;;;14.14;94.83;98664.97;5010584;28;20464;-50
2023/10/28 08:05:12;;;;;;;0.30;0.20;;;;;;;14.07;94.44;98670.81;5026338;28;20984;-49
2023/10/28 08:07:39;;;;;;;0.30;0.20;;;;;;;14.14;95.13;98677.47;5017704;28;20542;-49
2023/10/28 08:10:06;;;;;;;0.30;0.20;;;;;;;14.14;94.57;98672.97;5018609;28;20492;-50
2023/10/28 08:12:33;;;;;;;0.30;0.20;;;;;;;14.23;94.45;98690.16;5024459;28;20449;-49
2023/10/28 08:15:00;;;;;;;0.30;0.20;;;;;;;14.22;94.24;98696.47;5010234;28;20452;-50
2023/10/28 08:17:27;;;;;;;0.30;0.20;;;;;;;14.15;94.68;98687.19;5010361;28;20435;-50
2023/10/28 08:19:54;;;;;;;0.30;0.20;;;;;;;14.15;94.15;98685.38;5029262;28;20454;-49
2023/10/28 08:22:21;;;;;;;0.30;0.20;;;;;;;14.24;94.46;98689.22;5015716;28;20455;-49
2023/10/28 08:24:48;;;;;;;0.30;0.20;;;;;;;14.34;94.19;98690.28;5013402;28;20430;-50
2023/10/28 08:27:14;;;;;;;0.30;0.20;;;;;;;14.32;93.61;98696.72;5028190;28;20434;-49
2023/10/28 08:29:43;;;;;;;0.30;0.20;;;;;;;14.24;93.31;98697.22;5029523;28;20483;-50
2023/10/28 08:32:10;;;;;;;0.30;0.20;;;;;;;14.25;94.19;98701.59;5022944;28;20525;-50
2023/10/28 08:34:38;;;;;;;0.30;0.20;;;;;;;14.16;94.04;98702.25;5025428;28;20426;-50
2023/10/28 08:37:05;;;;;;;0.30;0.20;;;;;;;14.22;94.50;98708.03;5020357;28;20433;-49
2023/10/28 08:39:32;;;;;;;0.30;0.20;;;;;;;14.25;94.58;98701.59;5029287;28;20422;-49
2023/10/28 08:42:04;;;;;;;0.30;0.20;;;;;;;14.23;94.16;98714.22;5007904;28;20533;-50
2023/10/28 08:44:32;;;;;;;0.30;0.20;;;;;;;14.26;93.96;98714.03;5013143;28;20437;-50
2023/10/28 08:47:05;;;;;;;0.30;0.20;;;;;;;14.23;93.73;98715.09;5025039;28;20482;-50
2023/10/28 08:49:36;;;;;;;0.30;0.20;;;;;;;14.30;93.72;98707.50;5029293;28;20492;-50
2023/10/28 08:52:06;;;;;;;0.30;0.20;;;;;;;14.34;93.82;98718.84;5013990;28;20952;-49
2023/10/28 08:54:34;;;;;;;0.30;0.20;;;;;;;14.38;93.37;98721.19;5028489;28;20502;-50
2023/10/28 08:57:03;;;;;;;0.30;0.20;;;;;;;14.35;92.71;98725.91;5015771;28;20433;-49
2023/10/28 08:59:30;;;;;;;0.30;0.20;;;;;;;14.37;92.46;98716.78;5028914;28;20480;-50
2023/10/28 09:01:57;;;;;;;0.30;0.20;;;;;;;14.30;92.76;98720.03;5027764;28;20468;-51
2023/10/28 09:04:24;;;;;;;0.30;0.20;;;;;;;14.57;92.21;98720.81;5006959;28;20795;-50
2023/10/28 09:06:54;;;;;;;2.40;1.60;;;;;;;14.66;91.71;98720.13;5020464;28;20514;-50
2023/10/28 09:09:25;;;;;;;0.30;0.20;;;;;;;14.72;91.70;98717.03;5025935;28;20479;-50
2023/10/28 09:11:57;;;;;;;0.30;0.20;;;;;;;14.86;90.74;98715.22;5021485;28;20537;-50
2023/10/28 09:14:24;;;;;;;0.30;0.20;;;;;;;14.78;90.26;98713.06;5026948;28;20476;-49
2023/10/28 09:16:51;;;;;;;0.30;0.20;;;;;;;14.96;90.43;98718.94;5015604;28;20427;-50
2023/10/28 09:19:22;;;;;;;0.30;0.20;;;;;;;14.86;89.50;98710.72;5025737;28;20445;-51
2023/10/28 09:21:49;;;;;;;0.30;0.20;;;;;;;14.98;88.69;98717.88;5021725;28;20816;-50
2023/10/28 09:24:16;;;;;;;0.30;0.20;;;;;;;14.86;89.65;98724.09;5006581;28;20460;-49
2023/10/28 09:26:43;;;;;;;0.30;0.20;;;;;;;15.09;89.65;98717.97;5029293;28;20462;-50
2023/10/28 09:29:10;;;;;;;0.30;0.20;;;;;;;15.10;89.34;98725.03;5026492;28;20487;-49
2023/10/28 09:31:37;;;;;;;0.30;0.20;;;;;;;15.14;89.39;98719.44;5020567;28;20474;-50
2023/10/28 09:34:05;;;;;;;0.30;0.20;;;;;;;15.31;88.98;98727.94;5023884;28;20874;-50
2023/10/28 09:36:32;;;;;;;0.30;0.20;;;;;;;15.31;88.78;98727.94;5026315;28;20455;-50
2023/10/28 09:39:00;;;;;;;0.30;0.20;;;;;;;15.34;88.03;98733.06;5009533;28;20569;-49
2023/10/28 09:41:28;;;;;;;0.30;0.20;;;;;;;15.42;87.78;98727.16;5021131;28;20977;-50
2023/10/28 09:43:55;;;;;;;0.30;0.20;;;;;;;15.40;88.26;98737.13;5020701;28;20474;-50
2023/10/28 09:46:26;;;;;;;0.30;0.20;;;;;;;15.35;87.98;98733.91;5028120;28;20556;-50
2023/10/28 09:48:58;;;;;;;0.30;0.20;;;;;;;15.24;88.34;98734.72;5027284;28;20444;-50
2023/10/28 09:51:28;;;;;;;0.40;0.20;;;;;;;15.18;88.78;98736.97;5002779;28;20473;-51
2023/10/28 09:54:05;;;;;;;0.30;0.20;;;;;;;15.30;88.04;98734.25;5027648;28;20430;-50
2023/10/28 09:56:37;;;;;;;0.30;0.20;;;;;;;15.46;88.23;98727.78;5013691;28;20509;-50
2023/10/28 09:59:14;;;;;;;0.30;0.20;;;;;;;15.30;88.50;98728.06;5020945;28;20434;-50
2023/10/28 10:01:55;;;;;;;0.30;0.20;;;;;;;15.50;87.37;98738.19;5023502;28;20488;-53
2023/10/28 10:04:49;;;;;;;0.30;0.20;;;;;;;15.68;87.49;98739.50;5027498;28;20465;-53
2023/10/28 10:07:18;;;;;;;0.30;0.20;;;;;;;15.68;87.24;98744.03;5028671;28;20422;-53
2023/10/28 10:09:49;;;;;;;0.30;0.20;;;;;;;15.67;87.81;98745.84;5017600;28;20924;-53
2023/10/28 10:12:15;;;;;;;0.30;0.20;;;;;;;15.78;86.86;98744.19;5027029;28;20915;-57
2023/10/28 10:14:47;;;;;;;0.30;0.20;;;;;;;15.55;86.82;98749.41;5011241;28;20452;-52
2023/10/28 10:17:22;;;;;;;0.30;0.20;;;;;;;15.50;86.69;98751.56;5004560;28;20773;-52
2023/10/28 10:19:49;;;;;;;0.30;0.20;;;;;;;15.62;86.92;98749.81;5009890;28;20971;-52
2023/10/28 10:22:18;;;;;;;0.30;0.20;;;;;;;15.46;87.84;98744.69;5006790;28;20473;-53
2023/10/28 10:24:51;;;;;;;0.30;0.20;;;;;;;15.39;87.16;98751.50;5021826;28;20456;-52
2023/10/28 10:27:33;;;;;;;0.30;0.20;;;;;;;15.59;87.97;98752.69;5003177;28;20455;-52
2023/10/28 10:30:05;;;;;;;0.30;0.20;;;;;;;15.66;86.90;98752.16;5027282;28;20463;-53
2023/10/28 10:32:40;;;;;;;0.30;0.20;;;;;;;15.49;87.19;98743.63;5025626;28;20471;-52
2023/10/28 10:35:26;;;;;;;0.30;0.20;;;;;;;15.67;86.74;98747.66;5017350;28;20929;-52
2023/10/28 10:38:07;;;;;;;0.30;0.20;;;;;;;15.66;86.57;98752.16;5020056;28;20427;-52
2023/10/28 10:40:58;;;;;;;0.30;0.20;;;;;;;15.55;86.34;98746.72;5022561;28;20470;-52
2023/10/28 10:43:30;;;;;;;0.30;0.20;;;;;;;15.73;86.77;98751.69;5009047;28;20912;-52
2023/10/28 10:45:58;;;;;;;0.30;0.20;;;;;;;15.90;86.60;98745.97;5020386;28;20459;-53
2023/10/28 10:48:26;;;;;;;0.30;0.20;;;;;;;15.73;86.65;98751.69;5032590;28;20471;-50
2023/10/28 10:50:54;;;;;;;0.30;0.20;;;;;;;15.65;86.89;98749.59;5006977;28;20570;-49
2023/10/28 10:53:22;;;;;;;0.30;0.20;;;;;;;15.57;86.78;98744.78;5013124;28;20509;-50
2023/10/28 10:55:49;;;;;;;0.30;0.20;;;;;;;15.49;87.65;98740.94;5019938;28;20767;-50
2023/10/28 10:58:15;;;;;;;0.30;0.20;;;;;;;15.50;87.29;98735.50;5021905;28;20448;-50
2023/10/28 11:00:50;;;;;;;0.30;0.20;;;;;;;15.64;87.28;98735.38;5026530;28;20424;-50
2023/10/28 11:03:17;;;;;;;0.30;0.20;;;;;;;15.65;86.86;98739.75;5022936;28;20429;-49
2023/10/28 11:05:44;;;;;;;0.30;0.20;;;;;;;15.56;87.36;98720.78;5026769;28;20439;-49
2023/10/28 11:08:11;;;;;;;0.30;0.20;;;;;;;15.54;87.04;98733.44;5013627;28;20427;-50
2023/10/28 11:10:37;;;;;;;0.30;0.20;;;;;;;15.55;86.68;98729.78;4995630;28;20838;-50
2023/10/28 11:13:05;;;;;;;0.30;0.20;;;;;;;15.68;86.66;98744.03;5013624;28;20465;-50
2023/10/28 11:15:32;;;;;;;0.30;0.20;;;;;;;15.86;86.39;98734.59;5024002;28;20511;-50
2023/10/28 11:17:59;;;;;;;0.30;0.20;;;;;;;15.85;86.17;98734.72;5013355;28;20449;-50
2023/10/28 11:20:27;;;;;;;0.30;0.20;;;;;;;15.58;87.31;98730.41;5015804;28;20460;-49
2023/10/28 11:22:53;;;;;;;0.30;0.20;;;;;;;15.71;87.99;98738.41;5014282;28;20822;-50
2023/10/28 11:25:20;;;;;;;0.30;0.20;;;;;;;15.69;88.00;98751.94;5026407;28;20506;-52
2023/10/28 11:27:51;;;;;;;0.30;0.20;;;;;;;15.23;88.60;98738.38;5021027;28;20542;-49
2023/10/28 11:30:18;;;;;;;0.30;0.20;;;;;;;15.47;89.14;98738.38;5007829;28;20470;-49
2023/10/28 11:32:45;;;;;;;0.30;0.20;;;;;;;15.51;88.34;98744.38;5032187;28;20558;-49
2023/10/28 11:35:11;;;;;;;0.30;0.20;;;;;;;15.26;88.82;98732.78;5020335;28;20441;-49